sensor_id;sensor_type;location;lat;lon;timestamp;P1;durP1;ratioP1;P2;durP2;ratioP2
16063;SDS011;8136;53.172;8.256;2023-03-12T00:01:14;6.03;;;2.77;;
16063;SDS011;8136;53.172;8.256;2023-03-12T00:03:43;6.67;;;2.83;;
16063;SDS011;8136;53.172;8.256;2023-03-12T00:06:10;3.27;;;2.50;;
16063;SDS011;8136;53.172;8.256;2023-03-12T00:08:37;4.53;;;2.60;;
16063;SDS011;8136;53.172;8.256;2023-03-12T00:11:06;4.40;;;2.80;;
16063;SDS011;8136;53.172;8.256;2023-03-12T00:13:34;3.53;;;2.53;;
16063;SDS011;8136;53.172;8.256;2023-03-12T00:16:07;3.20;;;2.67;;
16063;SDS011;8136;53.172;8.256;2023-03-12T00:18:36;2.97;;;2.40;;
16063;SDS011;8136;53.172;8.256;2023-03-12T00:21:04;5.07;;;2.47;;
16063;SDS011;8136;53.172;8.256;2023-03-12T00:23:31;7.37;;;3.00;;
16063;SDS011;8136;53.172;8.256;2023-03-12T00:25:59;6.83;;;2.53;;
16063;SDS011;8136;53.172;8.256;2023-03-12T00:28:27;7.33;;;2.80;;
16063;SDS011;8136;53.172;8.256;2023-03-12T00:30:54;3.77;;;2.47;;
16063;SDS011;8136;53.172;8.256;2023-03-12T00:33:22;4.60;;;2.23;;
16063;SDS011;8136;53.172;8.256;2023-03-12T00:35:49;4.80;;;2.90;;
16063;SDS011;8136;53.172;8.256;2023-03-12T00:38:16;3.20;;;2.47;;
16063;SDS011;8136;53.172;8.256;2023-03-12T00:40:42;4.53;;;2.53;;
16063;SDS011;8136;53.172;8.256;2023-03-12T00:43:09;4.80;;;2.60;;
16063;SDS011;8136;53.172;8.256;2023-03-12T00:45:38;4.60;;;2.73;;
16063;SDS011;8136;53.172;8.256;2023-03-12T00:48:05;4.93;;;2.63;;
16063;SDS011;8136;53.172;8.256;2023-03-12T00:50:31;4.30;;;2.53;;
16063;SDS011;8136;53.172;8.256;2023-03-12T00:52:58;5.27;;;2.50;;
16063;SDS011;8136;53.172;8.256;2023-03-12T00:55:25;4.23;;;3.10;;
16063;SDS011;8136;53.172;8.256;2023-03-12T00:57:52;4.03;;;2.40;;
16063;SDS011;8136;53.172;8.256;2023-03-12T01:00:19;5.10;;;2.73;;
16063;SDS011;8136;53.172;8.256;2023-03-12T01:02:48;5.90;;;2.57;;
16063;SDS011;8136;53.172;8.256;2023-03-12T01:05:14;6.27;;;2.67;;
16063;SDS011;8136;53.172;8.256;2023-03-12T01:07:41;3.70;;;2.50;;
16063;SDS011;8136;53.172;8.256;2023-03-12T01:10:09;5.20;;;2.77;;
16063;SDS011;8136;53.172;8.256;2023-03-12T01:12:38;4.07;;;2.33;;
16063;SDS011;8136;53.172;8.256;2023-03-12T01:15:06;3.17;;;2.17;;
16063;SDS011;8136;53.172;8.256;2023-03-12T01:17:34;4.17;;;2.37;;
16063;SDS011;8136;53.172;8.256;2023-03-12T01:20:02;4.90;;;2.30;;
16063;SDS011;8136;53.172;8.256;2023-03-12T01:22:30;4.40;;;2.60;;
16063;SDS011;8136;53.172;8.256;2023-03-12T01:24:57;5.27;;;2.43;;
16063;SDS011;8136;53.172;8.256;2023-03-12T01:27:24;4.43;;;2.50;;
16063;SDS011;8136;53.172;8.256;2023-03-12T01:29:51;3.57;;;2.40;;
16063;SDS011;8136;53.172;8.256;2023-03-12T01:32:18;4.53;;;2.50;;
16063;SDS011;8136;53.172;8.256;2023-03-12T01:34:44;4.63;;;2.60;;
16063;SDS011;8136;53.172;8.256;2023-03-12T01:37:13;3.80;;;2.70;;
16063;SDS011;8136;53.172;8.256;2023-03-12T01:39:39;3.77;;;2.53;;
16063;SDS011;8136;53.172;8.256;2023-03-12T01:42:06;4.70;;;2.57;;
16063;SDS011;8136;53.172;8.256;2023-03-12T01:44:47;4.87;;;2.50;;
16063;SDS011;8136;53.172;8.256;2023-03-12T01:47:18;4.53;;;3.07;;
16063;SDS011;8136;53.172;8.256;2023-03-12T01:49:45;4.67;;;2.90;;
16063;SDS011;8136;53.172;8.256;2023-03-12T01:52:16;7.20;;;3.10;;
16063;SDS011;8136;53.172;8.256;2023-03-12T01:54:47;4.87;;;2.67;;
16063;SDS011;8136;53.172;8.256;2023-03-12T01:57:20;5.73;;;3.30;;
16063;SDS011;8136;53.172;8.256;2023-03-12T01:59:52;5.27;;;3.00;;
16063;SDS011;8136;53.172;8.256;2023-03-12T02:02:21;5.43;;;3.03;;
16063;SDS011;8136;53.172;8.256;2023-03-12T02:04:53;4.53;;;2.60;;
16063;SDS011;8136;53.172;8.256;2023-03-12T02:07:29;3.90;;;2.97;;
16063;SDS011;8136;53.172;8.256;2023-03-12T02:09:56;6.50;;;3.10;;
16063;SDS011;8136;53.172;8.256;2023-03-12T02:12:23;4.27;;;2.97;;
16063;SDS011;8136;53.172;8.256;2023-03-12T02:14:49;6.23;;;2.80;;
16063;SDS011;8136;53.172;8.256;2023-03-12T02:17:16;3.17;;;2.43;;
16063;SDS011;8136;53.172;8.256;2023-03-12T02:19:45;3.90;;;2.77;;
16063;SDS011;8136;53.172;8.256;2023-03-12T02:22:16;4.40;;;3.10;;
16063;SDS011;8136;53.172;8.256;2023-03-12T02:24:47;6.90;;;2.83;;
16063;SDS011;8136;53.172;8.256;2023-03-12T02:27:18;3.13;;;2.30;;
16063;SDS011;8136;53.172;8.256;2023-03-12T02:29:47;4.50;;;2.63;;
16063;SDS011;8136;53.172;8.256;2023-03-12T02:32:16;5.47;;;2.80;;
16063;SDS011;8136;53.172;8.256;2023-03-12T02:34:48;6.00;;;2.40;;
16063;SDS011;8136;53.172;8.256;2023-03-12T02:37:15;3.80;;;2.70;;
16063;SDS011;8136;53.172;8.256;2023-03-12T02:39:42;5.37;;;2.93;;
16063;SDS011;8136;53.172;8.256;2023-03-12T02:42:11;2.97;;;2.67;;
16063;SDS011;8136;53.172;8.256;2023-03-12T02:44:40;4.63;;;2.90;;
16063;SDS011;8136;53.172;8.256;2023-03-12T02:47:07;3.33;;;2.53;;
16063;SDS011;8136;53.172;8.256;2023-03-12T02:49:34;7.53;;;3.13;;
16063;SDS011;8136;53.172;8.256;2023-03-12T02:52:01;3.43;;;2.83;;
16063;SDS011;8136;53.172;8.256;2023-03-12T02:54:29;5.27;;;2.83;;
16063;SDS011;8136;53.172;8.256;2023-03-12T02:56:55;5.47;;;2.73;;
16063;SDS011;8136;53.172;8.256;2023-03-12T02:59:23;4.50;;;3.03;;
16063;SDS011;8136;53.172;8.256;2023-03-12T03:01:52;5.53;;;3.10;;
16063;SDS011;8136;53.172;8.256;2023-03-12T03:04:20;4.47;;;2.50;;
16063;SDS011;8136;53.172;8.256;2023-03-12T03:06:47;5.13;;;2.67;;
16063;SDS011;8136;53.172;8.256;2023-03-12T03:09:14;4.53;;;2.73;;
16063;SDS011;8136;53.172;8.256;2023-03-12T03:11:41;4.37;;;3.00;;
16063;SDS011;8136;53.172;8.256;2023-03-12T03:14:08;7.67;;;3.00;;
16063;SDS011;8136;53.172;8.256;2023-03-12T03:16:35;6.93;;;3.23;;
16063;SDS011;8136;53.172;8.256;2023-03-12T03:19:03;7.20;;;3.30;;
16063;SDS011;8136;53.172;8.256;2023-03-12T03:21:30;3.57;;;3.17;;
16063;SDS011;8136;53.172;8.256;2023-03-12T03:23:57;5.07;;;3.50;;
16063;SDS011;8136;53.172;8.256;2023-03-12T03:26:24;6.30;;;3.93;;
16063;SDS011;8136;53.172;8.256;2023-03-12T03:28:51;5.40;;;4.10;;
16063;SDS011;8136;53.172;8.256;2023-03-12T03:31:18;4.33;;;3.80;;
16063;SDS011;8136;53.172;8.256;2023-03-12T03:33:45;5.90;;;3.80;;
16063;SDS011;8136;53.172;8.256;2023-03-12T03:36:14;6.47;;;3.20;;
16063;SDS011;8136;53.172;8.256;2023-03-12T03:38:41;3.27;;;2.97;;
16063;SDS011;8136;53.172;8.256;2023-03-12T03:41:13;4.03;;;3.20;;
16063;SDS011;8136;53.172;8.256;2023-03-12T03:43:40;4.30;;;3.43;;
16063;SDS011;8136;53.172;8.256;2023-03-12T03:46:07;3.77;;;2.93;;
16063;SDS011;8136;53.172;8.256;2023-03-12T03:48:33;4.30;;;3.40;;
16063;SDS011;8136;53.172;8.256;2023-03-12T03:51:00;7.37;;;3.80;;
16063;SDS011;8136;53.172;8.256;2023-03-12T03:53:28;3.67;;;2.77;;
16063;SDS011;8136;53.172;8.256;2023-03-12T03:55:56;5.60;;;3.30;;
16063;SDS011;8136;53.172;8.256;2023-03-12T03:58:22;5.10;;;2.97;;
16063;SDS011;8136;53.172;8.256;2023-03-12T04:00:49;5.00;;;3.20;;
16063;SDS011;8136;53.172;8.256;2023-03-12T04:03:16;5.07;;;3.40;;
16063;SDS011;8136;53.172;8.256;2023-03-12T04:05:43;4.13;;;3.30;;
16063;SDS011;8136;53.172;8.256;2023-03-12T04:08:09;7.30;;;3.17;;
16063;SDS011;8136;53.172;8.256;2023-03-12T04:10:38;3.93;;;3.40;;
16063;SDS011;8136;53.172;8.256;2023-03-12T04:13:05;6.47;;;3.40;;
16063;SDS011;8136;53.172;8.256;2023-03-12T04:15:31;3.50;;;3.00;;
16063;SDS011;8136;53.172;8.256;2023-03-12T04:17:58;6.80;;;3.77;;
16063;SDS011;8136;53.172;8.256;2023-03-12T04:20:25;4.00;;;3.10;;
16063;SDS011;8136;53.172;8.256;2023-03-12T04:22:52;10.07;;;3.43;;
16063;SDS011;8136;53.172;8.256;2023-03-12T04:25:18;5.37;;;3.47;;
16063;SDS011;8136;53.172;8.256;2023-03-12T04:27:46;5.83;;;3.10;;
16063;SDS011;8136;53.172;8.256;2023-03-12T04:30:13;3.63;;;3.10;;
16063;SDS011;8136;53.172;8.256;2023-03-12T04:32:40;4.30;;;3.17;;
16063;SDS011;8136;53.172;8.256;2023-03-12T04:35:07;4.97;;;3.53;;
16063;SDS011;8136;53.172;8.256;2023-03-12T04:37:34;4.60;;;3.20;;
16063;SDS011;8136;53.172;8.256;2023-03-12T04:40:01;4.03;;;3.13;;
16063;SDS011;8136;53.172;8.256;2023-03-12T04:42:31;5.07;;;3.17;;
16063;SDS011;8136;53.172;8.256;2023-03-12T04:45:00;4.37;;;3.33;;
16063;SDS011;8136;53.172;8.256;2023-03-12T04:47:28;5.23;;;3.00;;
16063;SDS011;8136;53.172;8.256;2023-03-12T04:49:55;4.33;;;3.10;;
16063;SDS011;8136;53.172;8.256;2023-03-12T04:52:22;5.97;;;3.20;;
16063;SDS011;8136;53.172;8.256;2023-03-12T04:54:49;4.93;;;3.57;;
16063;SDS011;8136;53.172;8.256;2023-03-12T04:57:16;4.87;;;3.47;;
16063;SDS011;8136;53.172;8.256;2023-03-12T04:59:42;4.23;;;2.83;;
16063;SDS011;8136;53.172;8.256;2023-03-12T05:02:11;7.27;;;3.27;;
16063;SDS011;8136;53.172;8.256;2023-03-12T05:04:37;4.37;;;3.07;;
16063;SDS011;8136;53.172;8.256;2023-03-12T05:07:04;5.00;;;3.07;;
16063;SDS011;8136;53.172;8.256;2023-03-12T05:09:31;5.30;;;3.10;;
16063;SDS011;8136;53.172;8.256;2023-03-12T05:11:58;3.30;;;2.90;;
16063;SDS011;8136;53.172;8.256;2023-03-12T05:14:24;6.00;;;3.00;;
16063;SDS011;8136;53.172;8.256;2023-03-12T05:16:51;4.07;;;2.73;;
16063;SDS011;8136;53.172;8.256;2023-03-12T05:19:19;6.60;;;3.33;;
16063;SDS011;8136;53.172;8.256;2023-03-12T05:21:46;6.87;;;3.60;;
16063;SDS011;8136;53.172;8.256;2023-03-12T05:24:14;7.47;;;3.40;;
16063;SDS011;8136;53.172;8.256;2023-03-12T05:26:41;3.80;;;3.27;;
16063;SDS011;8136;53.172;8.256;2023-03-12T05:29:08;3.60;;;3.20;;
16063;SDS011;8136;53.172;8.256;2023-03-12T05:31:35;7.80;;;3.00;;
16063;SDS011;8136;53.172;8.256;2023-03-12T05:34:02;4.70;;;3.13;;
16063;SDS011;8136;53.172;8.256;2023-03-12T05:36:31;3.67;;;3.30;;
16063;SDS011;8136;53.172;8.256;2023-03-12T05:38:57;4.37;;;3.10;;
16063;SDS011;8136;53.172;8.256;2023-03-12T05:41:26;4.70;;;3.03;;
16063;SDS011;8136;53.172;8.256;2023-03-12T05:43:54;4.50;;;3.00;;
16063;SDS011;8136;53.172;8.256;2023-03-12T05:46:22;4.13;;;3.43;;
16063;SDS011;8136;53.172;8.256;2023-03-12T05:48:49;5.77;;;3.30;;
16063;SDS011;8136;53.172;8.256;2023-03-12T05:51:17;3.93;;;2.63;;
16063;SDS011;8136;53.172;8.256;2023-03-12T05:53:45;5.60;;;3.23;;
16063;SDS011;8136;53.172;8.256;2023-03-12T05:56:13;4.57;;;3.43;;
16063;SDS011;8136;53.172;8.256;2023-03-12T05:58:41;5.30;;;3.00;;
16063;SDS011;8136;53.172;8.256;2023-03-12T06:01:11;4.57;;;3.13;;
16063;SDS011;8136;53.172;8.256;2023-03-12T06:03:38;4.33;;;3.60;;
16063;SDS011;8136;53.172;8.256;2023-03-12T06:06:07;5.73;;;3.43;;
16063;SDS011;8136;53.172;8.256;2023-03-12T06:08:33;6.57;;;3.67;;
16063;SDS011;8136;53.172;8.256;2023-03-12T06:11:02;3.93;;;3.37;;
16063;SDS011;8136;53.172;8.256;2023-03-12T06:13:28;4.67;;;3.53;;
16063;SDS011;8136;53.172;8.256;2023-03-12T06:16:00;5.60;;;3.30;;
16063;SDS011;8136;53.172;8.256;2023-03-12T06:18:27;5.83;;;3.63;;
16063;SDS011;8136;53.172;8.256;2023-03-12T06:20:53;5.00;;;3.63;;
16063;SDS011;8136;53.172;8.256;2023-03-12T06:23:20;10.20;;;3.93;;
16063;SDS011;8136;53.172;8.256;2023-03-12T06:25:47;5.30;;;3.60;;
16063;SDS011;8136;53.172;8.256;2023-03-12T06:28:15;5.50;;;3.77;;
16063;SDS011;8136;53.172;8.256;2023-03-12T06:30:42;4.87;;;3.70;;
16063;SDS011;8136;53.172;8.256;2023-03-12T06:33:08;5.33;;;3.77;;
16063;SDS011;8136;53.172;8.256;2023-03-12T06:35:35;3.93;;;3.30;;
16063;SDS011;8136;53.172;8.256;2023-03-12T06:38:02;9.37;;;3.67;;
16063;SDS011;8136;53.172;8.256;2023-03-12T06:40:29;5.50;;;3.57;;
16063;SDS011;8136;53.172;8.256;2023-03-12T06:42:57;4.33;;;3.73;;
16063;SDS011;8136;53.172;8.256;2023-03-12T06:45:25;8.13;;;3.60;;
16063;SDS011;8136;53.172;8.256;2023-03-12T06:47:51;5.60;;;3.97;;
16063;SDS011;8136;53.172;8.256;2023-03-12T06:50:18;6.17;;;3.67;;
16063;SDS011;8136;53.172;8.256;2023-03-12T06:52:45;5.67;;;3.80;;
16063;SDS011;8136;53.172;8.256;2023-03-12T06:55:11;5.87;;;3.50;;
16063;SDS011;8136;53.172;8.256;2023-03-12T06:57:38;6.13;;;3.37;;
16063;SDS011;8136;53.172;8.256;2023-03-12T07:00:05;7.40;;;3.47;;
16063;SDS011;8136;53.172;8.256;2023-03-12T07:02:35;4.93;;;3.60;;
16063;SDS011;8136;53.172;8.256;2023-03-12T07:05:02;6.80;;;4.07;;
16063;SDS011;8136;53.172;8.256;2023-03-12T07:07:28;5.67;;;3.30;;
16063;SDS011;8136;53.172;8.256;2023-03-12T07:09:55;4.03;;;3.63;;
16063;SDS011;8136;53.172;8.256;2023-03-12T07:12:22;4.03;;;2.90;;
16063;SDS011;8136;53.172;8.256;2023-03-12T07:14:49;6.07;;;3.63;;
16063;SDS011;8136;53.172;8.256;2023-03-12T07:17:16;6.63;;;3.90;;
16063;SDS011;8136;53.172;8.256;2023-03-12T07:19:44;4.70;;;3.27;;
16063;SDS011;8136;53.172;8.256;2023-03-12T07:22:10;6.83;;;3.60;;
16063;SDS011;8136;53.172;8.256;2023-03-12T07:24:37;4.47;;;3.50;;
16063;SDS011;8136;53.172;8.256;2023-03-12T07:27:04;5.43;;;3.87;;
16063;SDS011;8136;53.172;8.256;2023-03-12T07:29:31;7.73;;;3.87;;
16063;SDS011;8136;53.172;8.256;2023-03-12T07:31:57;6.83;;;3.70;;
16063;SDS011;8136;53.172;8.256;2023-03-12T07:34:24;4.90;;;4.10;;
16063;SDS011;8136;53.172;8.256;2023-03-12T07:36:52;6.40;;;4.20;;
16063;SDS011;8136;53.172;8.256;2023-03-12T07:39:20;6.33;;;4.27;;
16063;SDS011;8136;53.172;8.256;2023-03-12T07:41:47;4.80;;;4.10;;
16063;SDS011;8136;53.172;8.256;2023-03-12T07:44:14;7.07;;;4.10;;
16063;SDS011;8136;53.172;8.256;2023-03-12T07:46:41;4.33;;;3.67;;
16063;SDS011;8136;53.172;8.256;2023-03-12T07:49:08;7.20;;;4.57;;
16063;SDS011;8136;53.172;8.256;2023-03-12T07:51:34;5.20;;;4.30;;
16063;SDS011;8136;53.172;8.256;2023-03-12T07:54:03;7.10;;;4.43;;
16063;SDS011;8136;53.172;8.256;2023-03-12T07:56:29;5.50;;;4.17;;
16063;SDS011;8136;53.172;8.256;2023-03-12T07:58:56;6.43;;;5.13;;
16063;SDS011;8136;53.172;8.256;2023-03-12T08:01:23;5.53;;;4.87;;
16063;SDS011;8136;53.172;8.256;2023-03-12T08:03:55;6.10;;;5.50;;
16063;SDS011;8136;53.172;8.256;2023-03-12T08:06:22;10.67;;;5.30;;
16063;SDS011;8136;53.172;8.256;2023-03-12T08:08:49;5.40;;;4.53;;
16063;SDS011;8136;53.172;8.256;2023-03-12T08:11:17;7.03;;;5.00;;
16063;SDS011;8136;53.172;8.256;2023-03-12T08:13:45;6.60;;;4.40;;
16063;SDS011;8136;53.172;8.256;2023-03-12T08:16:12;7.60;;;5.00;;
16063;SDS011;8136;53.172;8.256;2023-03-12T08:18:39;7.53;;;4.80;;
16063;SDS011;8136;53.172;8.256;2023-03-12T08:21:07;5.20;;;4.17;;
16063;SDS011;8136;53.172;8.256;2023-03-12T08:23:34;6.57;;;4.40;;
16063;SDS011;8136;53.172;8.256;2023-03-12T08:26:03;5.07;;;3.83;;
16063;SDS011;8136;53.172;8.256;2023-03-12T08:28:45;8.23;;;4.93;;
16063;SDS011;8136;53.172;8.256;2023-03-12T08:31:12;4.63;;;3.87;;
16063;SDS011;8136;53.172;8.256;2023-03-12T08:33:38;7.50;;;4.03;;
16063;SDS011;8136;53.172;8.256;2023-03-12T08:36:07;7.77;;;4.13;;
16063;SDS011;8136;53.172;8.256;2023-03-12T08:38:34;4.77;;;3.80;;
16063;SDS011;8136;53.172;8.256;2023-03-12T08:41:01;5.17;;;3.97;;
16063;SDS011;8136;53.172;8.256;2023-03-12T08:43:28;4.50;;;3.70;;
16063;SDS011;8136;53.172;8.256;2023-03-12T08:45:56;5.03;;;3.57;;
16063;SDS011;8136;53.172;8.256;2023-03-12T08:48:24;7.77;;;3.70;;
16063;SDS011;8136;53.172;8.256;2023-03-12T08:50:53;6.00;;;3.60;;
16063;SDS011;8136;53.172;8.256;2023-03-12T08:53:20;6.13;;;3.43;;
16063;SDS011;8136;53.172;8.256;2023-03-12T08:55:47;6.30;;;3.83;;
16063;SDS011;8136;53.172;8.256;2023-03-12T08:58:14;4.47;;;3.33;;
16063;SDS011;8136;53.172;8.256;2023-03-12T09:00:40;5.67;;;3.83;;
16063;SDS011;8136;53.172;8.256;2023-03-12T09:03:09;4.87;;;3.60;;
16063;SDS011;8136;53.172;8.256;2023-03-12T09:05:39;4.17;;;3.63;;
16063;SDS011;8136;53.172;8.256;2023-03-12T09:08:05;4.13;;;3.17;;
16063;SDS011;8136;53.172;8.256;2023-03-12T09:10:32;6.17;;;3.60;;
16063;SDS011;8136;53.172;8.256;2023-03-12T09:12:59;6.47;;;4.33;;
16063;SDS011;8136;53.172;8.256;2023-03-12T09:15:26;4.30;;;3.60;;
16063;SDS011;8136;53.172;8.256;2023-03-12T09:17:53;7.10;;;3.40;;
16063;SDS011;8136;53.172;8.256;2023-03-12T09:20:22;7.57;;;3.70;;
16063;SDS011;8136;53.172;8.256;2023-03-12T09:22:50;8.23;;;3.90;;
16063;SDS011;8136;53.172;8.256;2023-03-12T09:25:17;5.67;;;3.20;;
16063;SDS011;8136;53.172;8.256;2023-03-12T09:27:46;3.23;;;2.93;;
16063;SDS011;8136;53.172;8.256;2023-03-12T09:30:13;4.63;;;3.40;;
16063;SDS011;8136;53.172;8.256;2023-03-12T09:32:41;6.43;;;3.87;;
16063;SDS011;8136;53.172;8.256;2023-03-12T09:35:09;5.87;;;3.73;;
16063;SDS011;8136;53.172;8.256;2023-03-12T09:37:38;3.83;;;3.33;;
16063;SDS011;8136;53.172;8.256;2023-03-12T09:40:05;4.03;;;3.63;;
16063;SDS011;8136;53.172;8.256;2023-03-12T09:42:36;4.10;;;3.37;;
16063;SDS011;8136;53.172;8.256;2023-03-12T09:45:08;5.33;;;3.57;;
16063;SDS011;8136;53.172;8.256;2023-03-12T09:47:42;5.67;;;3.80;;
16063;SDS011;8136;53.172;8.256;2023-03-12T09:50:19;4.53;;;3.37;;
16063;SDS011;8136;53.172;8.256;2023-03-12T09:52:54;7.73;;;3.30;;
16063;SDS011;8136;53.172;8.256;2023-03-12T09:55:24;3.30;;;3.00;;
16063;SDS011;8136;53.172;8.256;2023-03-12T09:57:53;6.37;;;3.37;;
16063;SDS011;8136;53.172;8.256;2023-03-12T10:00:23;7.57;;;3.67;;
16063;SDS011;8136;53.172;8.256;2023-03-12T10:03:02;3.70;;;2.97;;
16063;SDS011;8136;53.172;8.256;2023-03-12T10:05:44;5.23;;;3.33;;
16063;SDS011;8136;53.172;8.256;2023-03-12T10:08:22;4.00;;;3.10;;
16063;SDS011;8136;53.172;8.256;2023-03-12T10:10:54;3.67;;;2.87;;
16063;SDS011;8136;53.172;8.256;2023-03-12T10:13:33;7.37;;;3.50;;
16063;SDS011;8136;53.172;8.256;2023-03-12T10:16:10;3.73;;;2.93;;
16063;SDS011;8136;53.172;8.256;2023-03-12T10:18:51;3.13;;;2.67;;
16063;SDS011;8136;53.172;8.256;2023-03-12T10:21:29;3.23;;;2.60;;
16063;SDS011;8136;53.172;8.256;2023-03-12T10:24:06;3.60;;;2.97;;
16063;SDS011;8136;53.172;8.256;2023-03-12T10:26:45;3.87;;;2.70;;
16063;SDS011;8136;53.172;8.256;2023-03-12T10:29:15;7.57;;;3.00;;
16063;SDS011;8136;53.172;8.256;2023-03-12T10:31:50;6.17;;;2.90;;
16063;SDS011;8136;53.172;8.256;2023-03-12T10:34:20;5.00;;;3.00;;
16063;SDS011;8136;53.172;8.256;2023-03-12T10:36:55;4.87;;;3.40;;
16063;SDS011;8136;53.172;8.256;2023-03-12T10:39:26;5.33;;;3.03;;
16063;SDS011;8136;53.172;8.256;2023-03-12T10:41:53;4.93;;;2.87;;
16063;SDS011;8136;53.172;8.256;2023-03-12T10:44:23;8.00;;;2.97;;
16063;SDS011;8136;53.172;8.256;2023-03-12T10:46:53;4.23;;;3.40;;
16063;SDS011;8136;53.172;8.256;2023-03-12T10:49:31;3.43;;;2.57;;
16063;SDS011;8136;53.172;8.256;2023-03-12T10:52:00;3.10;;;2.80;;
16063;SDS011;8136;53.172;8.256;2023-03-12T10:54:32;4.07;;;3.20;;
16063;SDS011;8136;53.172;8.256;2023-03-12T10:57:00;3.90;;;3.33;;
16063;SDS011;8136;53.172;8.256;2023-03-12T10:59:29;5.10;;;3.40;;
16063;SDS011;8136;53.172;8.256;2023-03-12T11:01:58;4.73;;;3.07;;
16063;SDS011;8136;53.172;8.256;2023-03-12T11:04:26;5.90;;;3.10;;
16063;SDS011;8136;53.172;8.256;2023-03-12T11:10:02;5.97;;;3.23;;
16063;SDS011;8136;53.172;8.256;2023-03-12T11:12:39;5.47;;;3.33;;
16063;SDS011;8136;53.172;8.256;2023-03-12T11:15:18;8.47;;;3.13;;
16063;SDS011;8136;53.172;8.256;2023-03-12T11:17:47;8.30;;;3.33;;
16063;SDS011;8136;53.172;8.256;2023-03-12T11:20:17;4.93;;;3.77;;
16063;SDS011;8136;53.172;8.256;2023-03-12T11:22:51;6.03;;;2.90;;
16063;SDS011;8136;53.172;8.256;2023-03-12T11:25:23;3.33;;;3.03;;
16063;SDS011;8136;53.172;8.256;2023-03-12T11:27:52;4.43;;;2.93;;
16063;SDS011;8136;53.172;8.256;2023-03-12T11:30:21;5.10;;;3.57;;
16063;SDS011;8136;53.172;8.256;2023-03-12T11:32:54;8.60;;;3.60;;
16063;SDS011;8136;53.172;8.256;2023-03-12T11:35:25;6.43;;;3.47;;
16063;SDS011;8136;53.172;8.256;2023-03-12T11:37:59;5.70;;;3.77;;
16063;SDS011;8136;53.172;8.256;2023-03-12T11:40:41;7.57;;;3.60;;
16063;SDS011;8136;53.172;8.256;2023-03-12T11:43:25;6.07;;;3.57;;
16063;SDS011;8136;53.172;8.256;2023-03-12T11:46:09;5.10;;;4.17;;
16063;SDS011;8136;53.172;8.256;2023-03-12T11:48:49;6.27;;;4.07;;
16063;SDS011;8136;53.172;8.256;2023-03-12T11:51:26;6.60;;;3.83;;
16063;SDS011;8136;53.172;8.256;2023-03-12T11:54:05;5.00;;;4.37;;
16063;SDS011;8136;53.172;8.256;2023-03-12T11:56:46;6.17;;;4.93;;
16063;SDS011;8136;53.172;8.256;2023-03-12T12:02:22;7.03;;;5.37;;
16063;SDS011;8136;53.172;8.256;2023-03-12T12:05:21;6.37;;;4.97;;
16063;SDS011;8136;53.172;8.256;2023-03-12T12:10:52;7.13;;;5.67;;
16063;SDS011;8136;53.172;8.256;2023-03-12T12:13:28;6.53;;;5.93;;
16063;SDS011;8136;53.172;8.256;2023-03-12T12:16:08;7.40;;;5.57;;
16063;SDS011;8136;53.172;8.256;2023-03-12T12:18:48;6.50;;;5.90;;
16063;SDS011;8136;53.172;8.256;2023-03-12T12:21:29;7.53;;;6.47;;
16063;SDS011;8136;53.172;8.256;2023-03-12T12:24:08;7.27;;;6.57;;
16063;SDS011;8136;53.172;8.256;2023-03-12T12:26:43;7.20;;;6.37;;
16063;SDS011;8136;53.172;8.256;2023-03-12T12:29:19;8.57;;;6.83;;
16063;SDS011;8136;53.172;8.256;2023-03-12T12:31:53;7.40;;;6.53;;
16063;SDS011;8136;53.172;8.256;2023-03-12T12:37:23;8.67;;;7.77;;
16063;SDS011;8136;53.172;8.256;2023-03-12T12:40:02;9.17;;;7.30;;
16063;SDS011;8136;53.172;8.256;2023-03-12T12:42:40;10.27;;;7.53;;
16063;SDS011;8136;53.172;8.256;2023-03-12T12:45:18;10.03;;;8.80;;
16063;SDS011;8136;53.172;8.256;2023-03-12T12:47:47;9.07;;;8.23;;
16063;SDS011;8136;53.172;8.256;2023-03-12T12:50:19;10.77;;;8.87;;
16063;SDS011;8136;53.172;8.256;2023-03-12T12:52:48;9.73;;;8.73;;
16063;SDS011;8136;53.172;8.256;2023-03-12T12:55:20;10.40;;;8.23;;
16063;SDS011;8136;53.172;8.256;2023-03-12T12:57:53;9.23;;;8.33;;
16063;SDS011;8136;53.172;8.256;2023-03-12T13:00:34;9.80;;;8.90;;
16063;SDS011;8136;53.172;8.256;2023-03-12T13:03:04;9.97;;;8.20;;
16063;SDS011;8136;53.172;8.256;2023-03-12T13:05:39;7.57;;;6.77;;
16063;SDS011;8136;53.172;8.256;2023-03-12T13:11:21;8.73;;;7.53;;
16063;SDS011;8136;53.172;8.256;2023-03-12T13:14:11;8.40;;;7.57;;
16063;SDS011;8136;53.172;8.256;2023-03-12T13:17:06;9.70;;;7.60;;
16063;SDS011;8136;53.172;8.256;2023-03-12T13:19:46;7.63;;;6.73;;
16063;SDS011;8136;53.172;8.256;2023-03-12T13:22:18;6.63;;;6.00;;
16063;SDS011;8136;53.172;8.256;2023-03-12T13:24:54;6.77;;;6.07;;
16063;SDS011;8136;53.172;8.256;2023-03-12T13:27:33;6.60;;;6.00;;
16063;SDS011;8136;53.172;8.256;2023-03-12T13:33:14;7.43;;;6.57;;
16063;SDS011;8136;53.172;8.256;2023-03-12T13:38:36;8.27;;;7.10;;
16063;SDS011;8136;53.172;8.256;2023-03-12T13:41:25;7.20;;;6.50;;
16063;SDS011;8136;53.172;8.256;2023-03-12T13:43:57;7.90;;;7.07;;
16063;SDS011;8136;53.172;8.256;2023-03-12T13:46:40;8.00;;;7.20;;
16063;SDS011;8136;53.172;8.256;2023-03-12T13:49:12;7.97;;;7.17;;
16063;SDS011;8136;53.172;8.256;2023-03-12T13:51:44;9.00;;;7.90;;
16063;SDS011;8136;53.172;8.256;2023-03-12T13:54:18;9.00;;;8.10;;
16063;SDS011;8136;53.172;8.256;2023-03-12T13:56:53;8.83;;;7.93;;
16063;SDS011;8136;53.172;8.256;2023-03-12T13:59:25;8.90;;;7.87;;
16063;SDS011;8136;53.172;8.256;2023-03-12T14:01:54;10.73;;;8.13;;
16063;SDS011;8136;53.172;8.256;2023-03-12T14:04:27;9.77;;;8.30;;
16063;SDS011;8136;53.172;8.256;2023-03-12T14:07:01;10.13;;;8.57;;
16063;SDS011;8136;53.172;8.256;2023-03-12T14:09:42;10.00;;;8.83;;
16063;SDS011;8136;53.172;8.256;2023-03-12T14:12:14;10.47;;;8.97;;
16063;SDS011;8136;53.172;8.256;2023-03-12T14:14:59;10.93;;;8.83;;
16063;SDS011;8136;53.172;8.256;2023-03-12T14:17:33;10.50;;;8.83;;
16063;SDS011;8136;53.172;8.256;2023-03-12T14:20:09;10.50;;;9.40;;
16063;SDS011;8136;53.172;8.256;2023-03-12T14:22:40;11.27;;;10.03;;
16063;SDS011;8136;53.172;8.256;2023-03-12T14:25:11;13.87;;;10.43;;
16063;SDS011;8136;53.172;8.256;2023-03-12T14:27:41;11.97;;;9.27;;
16063;SDS011;8136;53.172;8.256;2023-03-12T14:30:11;14.57;;;10.53;;
16063;SDS011;8136;53.172;8.256;2023-03-12T14:32:46;12.37;;;10.70;;
16063;SDS011;8136;53.172;8.256;2023-03-12T14:35:18;12.87;;;10.50;;
16063;SDS011;8136;53.172;8.256;2023-03-12T14:37:48;11.90;;;10.60;;
16063;SDS011;8136;53.172;8.256;2023-03-12T14:40:21;16.07;;;11.13;;
16063;SDS011;8136;53.172;8.256;2023-03-12T14:42:50;13.03;;;10.40;;
16063;SDS011;8136;53.172;8.256;2023-03-12T14:45:18;13.47;;;11.20;;
16063;SDS011;8136;53.172;8.256;2023-03-12T14:47:47;13.13;;;10.87;;
16063;SDS011;8136;53.172;8.256;2023-03-12T14:50:20;14.50;;;12.13;;
16063;SDS011;8136;53.172;8.256;2023-03-12T14:52:48;17.10;;;11.47;;
16063;SDS011;8136;53.172;8.256;2023-03-12T14:55:16;14.87;;;12.30;;
16063;SDS011;8136;53.172;8.256;2023-03-12T14:57:46;13.67;;;11.67;;
16063;SDS011;8136;53.172;8.256;2023-03-12T15:00:20;16.30;;;11.50;;
16063;SDS011;8136;53.172;8.256;2023-03-12T15:02:48;13.80;;;11.77;;
16063;SDS011;8136;53.172;8.256;2023-03-12T15:05:18;15.50;;;11.57;;
16063;SDS011;8136;53.172;8.256;2023-03-12T15:07:48;15.03;;;12.27;;
16063;SDS011;8136;53.172;8.256;2023-03-12T15:10:17;15.93;;;11.53;;
16063;SDS011;8136;53.172;8.256;2023-03-12T15:12:47;15.47;;;11.33;;
16063;SDS011;8136;53.172;8.256;2023-03-12T15:15:27;14.77;;;12.10;;
16063;SDS011;8136;53.172;8.256;2023-03-12T15:18:00;15.60;;;12.40;;
16063;SDS011;8136;53.172;8.256;2023-03-12T15:20:29;15.43;;;12.87;;
16063;SDS011;8136;53.172;8.256;2023-03-12T15:22:56;15.33;;;12.23;;
16063;SDS011;8136;53.172;8.256;2023-03-12T15:25:25;14.73;;;11.83;;
16063;SDS011;8136;53.172;8.256;2023-03-12T15:28:00;15.97;;;12.07;;
16063;SDS011;8136;53.172;8.256;2023-03-12T15:30:29;14.27;;;11.70;;
16063;SDS011;8136;53.172;8.256;2023-03-12T15:33:03;15.57;;;12.23;;
16063;SDS011;8136;53.172;8.256;2023-03-12T15:35:35;16.27;;;12.20;;